Flight Track Log - Related Links

Times and Time Zones

All times are in EDT time to prevent confusion due to time zone crossing. See the N839CA flight status page for this flight to view local times or setup timezone preferences in your user account.

Time Position Orientation Groundspeed Altitude Reporting Facility
EDT Latitude Longitude Course Direction KTS MPH feet Rate Location/Type
Sun 02:17:58 PM 43.1036 -77.6914 206° Southwest 121 139 1,100  Level Cleveland Center
Sun 02:19:10 PM 43.0625 -77.7189 206° Southwest 140 161 2,500 1,156 Climbing Cleveland Center
Sun 02:19:47 PM 43.0356 -77.7286 195° South 166 191 3,200 1,299 Climbing Cleveland Center
Sun 02:20:47 PM 42.9942 -77.7417 193° South 160 184 4,600 1,300 Climbing Cleveland Center
Sun 02:21:47 PM 42.9508 -77.7581 195° South 165 190 5,800 1,350 Climbing Cleveland Center
Sun 02:22:47 PM 42.9094 -77.7711 193° South 183 211 7,300 1,350 Climbing Cleveland Center
Sun 02:23:47 PM 42.8703 -77.7814 191° South 168 193 8,500 1,100 Climbing Cleveland Center
Sun 02:24:47 PM 42.8261 -77.7722 171° South 168 193 9,500 700 Climbing Cleveland Center
Sun 02:25:47 PM 42.7717 -77.7603 171° South 175 201 9,900 700 Climbing Cleveland Center
Sun 02:26:47 PM 42.7153 -77.7489 172° South 195 224 10,900 800 Climbing Cleveland Center
Sun 02:27:47 PM 42.6719 -77.6914 136° Southeast 209 241 11,500 700 Climbing Cleveland Center
Sun 02:28:47 PM 42.6206 -77.6372 142° Southeast 216 249 12,300 750 Climbing Cleveland Center
Sun 02:29:47 PM 42.5797 -77.5856 137° Southeast 216 249 13,000 212 Climbing Cleveland Center
Sun 02:32:05 PM 42.4625 -77.4486 139° Southeast 238 274 13,000 -30 Level New Center
Sun 02:33:05 PM 42.4117 -77.3900 140° Southeast 238 274 12,900  Descending New Center
Sun 02:34:06 PM 42.3889 -77.3119 112° Southeast 229 264 13,000 51 Climbing New Center
Sun 02:35:03 PM 42.3772 -77.2208 100° East 229 264 13,000  Level New Center
Sun 02:36:04 PM 42.3633 -77.1297 102° East 234 269 13,000  Level New Center
Sun 02:37:05 PM 42.3475 -77.0356 103° East 246 283 13,000  Level New Center
Sun 02:38:05 PM 42.3317 -76.9358 102° East 257 296 13,000  Level New Center
Sun 02:39:04 PM 42.3161 -76.8364 102° East 263 303 13,000  Level New Center
Sun 02:40:04 PM 42.3003 -76.7367 102° East 268 308 13,000  Level New Center
Sun 02:41:06 PM 42.2825 -76.6369 104° East 268 308 13,000  Level New Center
Sun 02:42:03 PM 42.2644 -76.5344 103° East 268 308 13,000  Level New Center
Sun 02:43:04 PM 42.2506 -76.4325 100° East 268 308 13,000 -33 Level New Center
Sun 02:45:06 PM 42.2203 -76.2336 102° East 286 329 12,900 -33 Descending Boston Center
Sun 02:46:06 PM 42.2047 -76.1344 102° East 280 322 12,900  Level Boston Center
Sun 02:47:06 PM 42.1869 -76.0353 104° East 275 316 12,900  Level Boston Center
Sun 02:48:06 PM 42.1714 -75.9364 102° East 275 316 12,900  Level Boston Center
Sun 02:49:06 PM 42.1556 -75.8403 102° East 270 311 12,900  Level Boston Center
Sun 02:50:06 PM 42.1378 -75.7414 104° East 270 311 12,900  Level Boston Center
Sun 02:51:06 PM 42.1239 -75.6425 101° East 265 305 12,900  Level Boston Center
Sun 02:52:06 PM 42.1078 -75.5408 102° East 265 305 12,900  Level Boston Center
Sun 02:53:06 PM 42.0936 -75.4478 102° East 265 305 12,900  Level Boston Center
Sun 02:54:06 PM 42.0711 -75.3517 107° East 265 305 12,900  Level Boston Center
Sun 02:55:06 PM 42.0444 -75.2611 112° Southeast 265 305 12,900 50 Level Boston Center
Sun 02:56:06 PM 42.0089 -75.1728 118° Southeast 259 298 13,000 50 Climbing Boston Center
Sun 02:57:06 PM 41.9717 -75.0733 117° Southeast 264 304 13,000  Level Boston Center
Sun 02:58:06 PM 41.9383 -74.9856 117° Southeast 271 312 13,000 -450 Level Boston Center
Sun 02:59:06 PM 41.8792 -74.9244 142° Southeast 260 299 12,100 -850 Descending Boston Center
Sun 03:00:06 PM 41.8300 -74.8919 154° Southeast 270 311 11,300 -1,100 Descending Boston Center
Sun 03:01:06 PM 41.7397 -74.8244 151° Southeast 282 325 9,900 -1,450 Descending Boston Center
Sun 03:02:06 PM 41.6942 -74.8006 159° South 271 312 8,400 -1,450 Descending Boston Center
Sun 03:03:06 PM 41.6286 -74.7453 148° Southeast 253 291 7,000 -1,000 Descending Boston Center
Sun 03:04:18 PM 41.5444 -74.6869 153° Southeast 242 278 6,200 -455 Descending Boston Center
Sun 03:05:18 PM 41.4842 -74.6708 169° South 248 285 6,000 -100 Descending Boston Center
Sun 03:06:18 PM 41.4075 -74.6542 171° South 248 285 6,000  Level Boston Center
Sun 03:07:26 PM 41.3333 -74.6333 168° South 244 281 6,000 -47 Level New TRACON
Sun 03:08:26 PM 41.2667 -74.6000 159° South 248 285 5,900 -450 Descending New TRACON
Sun 03:09:26 PM 41.2333 -74.5167 118° Southeast 252 290 5,100 -450 Descending New TRACON
Sun 03:10:26 PM 41.2000 -74.4500 124° Southeast 218 251 5,000 -50 Descending New TRACON
Sun 03:11:26 PM 41.1833 -74.3833 108° East 210 242 5,000  Level New TRACON
Sun 03:12:26 PM 41.1500 -74.3167 124° Southeast 223 257 5,000 250 Level New TRACON
Sun 03:13:26 PM 41.1167 -74.2500 124° Southeast 224 258 5,500 50 Climbing New TRACON
Sun 03:14:26 PM 41.0667 -74.1833 135° Southeast 243 280 5,100 -650 Descending New TRACON
Sun 03:15:26 PM 41.0000 -74.1500 159° South 243 280 4,200 -750 Descending New TRACON
Sun 03:16:26 PM 40.9500 -74.1167 153° Southeast 229 264 3,600 -550 Descending New TRACON
Sun 03:17:26 PM 40.8833 -74.1000 169° South 218 251 3,100 -300 Descending New TRACON
Sun 03:18:26 PM 40.8333 -74.0833 166° South 201 231 3,000 -579 Descending New TRACON
Sun 03:19:20 PM 40.7833 -74.1000 194° South 198 228 2,000 -895 Descending New TRACON
Sun 03:20:20 PM 40.7500 -74.1333 217° Southwest 162 186 1,300 -810 Descending New TRACON
Sun 03:21:26 PM 40.7167 -74.1500 201° Southwest 116 133 300 -909 Descending New TRACON
Sun 03:23:00 PM 40.6925 -74.1687 196° South  Level Estimated

Login

Don't have an account? Register now (free) for customized features, flight alerts, and more!